AAL1268 KDFW-KLAX
Flight info
| Callsign | AAL1268 |
|---|---|
| Flight time | N/A |
| Altitude | 34000 |
| Route | WSTEX2 CIKAN EWM SSO J50 TFD ESTWD HLYWD1 |
| Aircraft | A321/M-SDE3FGHIRWY/LB1 |
Departure
| Time | 2026-05-06 20:35 |
|---|---|
| Airport | Dallas Fort Worth International Airport (KDFW) |
Arrival
| Time | N/A |
|---|---|
| Airport | Los Angeles International Airport (KLAX) |
| Time | Latitude | Longitude | Altitude | Speed | Heading |
|---|---|---|---|---|---|
| 2026-05-06 19:56 | 32.90221 | -97.04414 | 616 ft | 0 kts | 40° |
| 2026-05-06 20:16 | 32.90211 | -97.04424 | 631 ft | 4 kts | 40° |
| 2026-05-06 20:16 | 32.90192 | -97.04445 | 622 ft | 4 kts | 59° |
| 2026-05-06 20:16 | 32.90185 | -97.04473 | 625 ft | 4 kts | 99° |
| 2026-05-06 20:16 | 32.90193 | -97.04495 | 628 ft | 1 kts | 132° |
| 2026-05-06 20:17 | 32.90195 | -97.04499 | 627 ft | 0 kts | 132° |
| 2026-05-06 20:25 | 32.90195 | -97.04498 | 615 ft | 1 kts | 132° |
| 2026-05-06 20:25 | 32.90182 | -97.04492 | 622 ft | 3 kts | 172° |
| 2026-05-06 20:25 | 32.90153 | -97.04503 | 618 ft | 6 kts | 218° |
| 2026-05-06 20:26 | 32.90136 | -97.04562 | 619 ft | 9 kts | 269° |
| 2026-05-06 20:26 | 32.90137 | -97.04651 | 625 ft | 13 kts | 270° |
| 2026-05-06 20:26 | 32.90129 | -97.04757 | 620 ft | 10 kts | 229° |
| 2026-05-06 20:26 | 32.90057 | -97.04764 | 621 ft | 12 kts | 180° |
| 2026-05-06 20:27 | 32.89960 | -97.04765 | 622 ft | 16 kts | 180° |
| 2026-05-06 20:27 | 32.89842 | -97.04766 | 621 ft | 19 kts | 180° |
| 2026-05-06 20:27 | 32.89711 | -97.04765 | 622 ft | 12 kts | 180° |
| 2026-05-06 20:27 | 32.89682 | -97.04766 | 622 ft | 4 kts | 181° |
| 2026-05-06 20:28 | 32.89639 | -97.04767 | 623 ft | 8 kts | 181° |
| 2026-05-06 20:28 | 32.89570 | -97.04768 | 622 ft | 12 kts | 180° |
| 2026-05-06 20:28 | 32.89477 | -97.04769 | 620 ft | 15 kts | 180° |
| 2026-05-06 20:28 | 32.89402 | -97.04769 | 622 ft | 0 kts | 180° |
| 2026-05-06 20:29 | 32.89388 | -97.04769 | 626 ft | 4 kts | 180° |
| 2026-05-06 20:30 | 32.89347 | -97.04769 | 623 ft | 8 kts | 180° |
| 2026-05-06 20:30 | 32.89190 | -97.04770 | 620 ft | 15 kts | 180° |
| 2026-05-06 20:30 | 32.89075 | -97.04770 | 623 ft | 18 kts | 180° |
| 2026-05-06 20:31 | 32.88939 | -97.04770 | 619 ft | 21 kts | 180° |
| 2026-05-06 20:31 | 32.88783 | -97.04771 | 619 ft | 23 kts | 181° |
| 2026-05-06 20:31 | 32.88632 | -97.04774 | 623 ft | 20 kts | 179° |
| 2026-05-06 20:31 | 32.88502 | -97.04786 | 620 ft | 17 kts | 213° |
| 2026-05-06 20:32 | 32.88385 | -97.04810 | 619 ft | 18 kts | 180° |
| 2026-05-06 20:32 | 32.88246 | -97.04810 | 620 ft | 21 kts | 179° |
| 2026-05-06 20:32 | 32.88101 | -97.04809 | 621 ft | 20 kts | 180° |
| 2026-05-06 20:32 | 32.87994 | -97.04827 | 627 ft | 13 kts | 226° |
| 2026-05-06 20:33 | 32.87979 | -97.04934 | 618 ft | 14 kts | 270° |
| 2026-05-06 20:33 | 32.87979 | -97.04956 | 618 ft | 0 kts | 271° |
| 2026-05-06 20:33 | 32.87979 | -97.04959 | 619 ft | 2 kts | 271° |
| 2026-05-06 20:33 | 32.87980 | -97.04989 | 624 ft | 6 kts | 271° |
| 2026-05-06 20:34 | 32.87981 | -97.05051 | 616 ft | 9 kts | 271° |
| 2026-05-06 20:34 | 32.88011 | -97.05089 | 620 ft | 7 kts | 357° |
| 2026-05-06 20:34 | 32.88026 | -97.05089 | 621 ft | 4 kts | 359° |
| 2026-05-06 20:34 | 32.88204 | -97.05090 | 621 ft | 62 kts | 0° |
| 2026-05-06 20:35 | 32.88896 | -97.05081 | 616 ft | 133 kts | 359° |
| 2026-05-06 20:35 | 32.90016 | -97.05083 | 741 ft | 180 kts | 1° |
| 2026-05-06 20:35 | 32.91272 | -97.05115 | 1601 ft | 182 kts | 357° |
| 2026-05-06 20:35 | 32.92554 | -97.05190 | 2430 ft | 188 kts | 358° |
| 2026-05-06 20:36 | 32.93919 | -97.05302 | 3036 ft | 210 kts | 357° |
| 2026-05-06 20:36 | 32.95462 | -97.05569 | 3441 ft | 237 kts | 346° |
| 2026-05-06 20:36 | 32.97067 | -97.06168 | 3926 ft | 247 kts | 339° |
| 2026-05-06 20:36 | 32.98695 | -97.06896 | 4578 ft | 252 kts | 335° |
| 2026-05-06 20:37 | 33.00169 | -97.07997 | 5185 ft | 251 kts | 308° |
| 2026-05-06 20:37 | 33.00973 | -97.09808 | 5765 ft | 250 kts | 279° |
| 2026-05-06 20:37 | 33.01001 | -97.11861 | 6446 ft | 249 kts | 264° |
| 2026-05-06 20:37 | 33.00868 | -97.13899 | 7112 ft | 250 kts | 265° |
| 2026-05-06 20:38 | 33.00739 | -97.15972 | 7784 ft | 252 kts | 265° |
| 2026-05-06 20:38 | 33.00595 | -97.18079 | 8277 ft | 261 kts | 263° |
| 2026-05-06 20:38 | 33.00395 | -97.20255 | 8800 ft | 267 kts | 262° |
| 2026-05-06 20:38 | 33.00155 | -97.22459 | 9425 ft | 269 kts | 257° |
| 2026-05-06 20:39 | 32.99532 | -97.24557 | 10022 ft | 271 kts | 240° |
| 2026-05-06 20:39 | 32.98445 | -97.26405 | 10468 ft | 279 kts | 232° |
| 2026-05-06 20:39 | 32.97205 | -97.28295 | 10583 ft | 300 kts | 233° |
| 2026-05-06 20:39 | 32.95885 | -97.30319 | 10711 ft | 319 kts | 233° |
| 2026-05-06 20:40 | 32.94489 | -97.32470 | 10822 ft | 337 kts | 233° |
| 2026-05-06 20:40 | 32.93032 | -97.34715 | 11115 ft | 347 kts | 233° |
| 2026-05-06 20:40 | 32.91548 | -97.37000 | 11666 ft | 350 kts | 233° |
| 2026-05-06 20:40 | 32.90060 | -97.39290 | 12292 ft | 350 kts | 233° |
| 2026-05-06 20:41 | 32.88569 | -97.41579 | 12941 ft | 350 kts | 233° |
| 2026-05-06 20:41 | 32.87075 | -97.43871 | 13594 ft | 351 kts | 233° |
| 2026-05-06 20:41 | 32.85579 | -97.46168 | 14204 ft | 351 kts | 233° |
| 2026-05-06 20:41 | 32.84086 | -97.48465 | 14801 ft | 351 kts | 233° |
| 2026-05-06 20:42 | 32.82593 | -97.50762 | 15402 ft | 351 kts | 233° |
| 2026-05-06 20:42 | 32.81101 | -97.53057 | 16014 ft | 351 kts | 233° |
| 2026-05-06 20:42 | 32.79607 | -97.55348 | 16621 ft | 350 kts | 233° |
| 2026-05-06 20:42 | 32.78117 | -97.57631 | 17234 ft | 350 kts | 233° |
| 2026-05-06 20:43 | 32.76621 | -97.59920 | 17818 ft | 350 kts | 233° |
| 2026-05-06 20:43 | 32.75128 | -97.62203 | 18372 ft | 350 kts | 234° |
| 2026-05-06 20:43 | 32.73633 | -97.64490 | 18828 ft | 351 kts | 234° |
| 2026-05-06 20:43 | 32.72129 | -97.66783 | 19230 ft | 353 kts | 234° |
| 2026-05-06 20:44 | 32.70618 | -97.69086 | 19625 ft | 355 kts | 234° |
| 2026-05-06 20:44 | 32.69153 | -97.71453 | 19989 ft | 356 kts | 239° |
| 2026-05-06 20:44 | 32.68090 | -97.74101 | 20402 ft | 357 kts | 250° |
| 2026-05-06 20:44 | 32.67658 | -97.75991 | 20659 ft | 361 kts | 257° |
| 2026-05-06 20:45 | 32.67370 | -97.78969 | 21048 ft | 364 kts | 261° |
| 2026-05-06 20:45 | 32.67143 | -97.81973 | 21441 ft | 366 kts | 261° |
| 2026-05-06 20:45 | 32.66911 | -97.84988 | 21830 ft | 368 kts | 261° |
| 2026-05-06 20:45 | 32.66675 | -97.88019 | 22209 ft | 370 kts | 261° |
| 2026-05-06 20:46 | 32.66435 | -97.91067 | 22593 ft | 372 kts | 262° |
| 2026-05-06 20:46 | 32.66193 | -97.94127 | 22958 ft | 373 kts | 262° |
| 2026-05-06 20:46 | 32.65950 | -97.97202 | 23335 ft | 375 kts | 262° |
| 2026-05-06 20:46 | 32.65704 | -98.00293 | 23688 ft | 377 kts | 262° |
| 2026-05-06 20:47 | 32.65458 | -98.03399 | 23984 ft | 379 kts | 262° |
| 2026-05-06 20:47 | 32.65213 | -98.06512 | 24306 ft | 380 kts | 261° |
| 2026-05-06 20:47 | 32.64964 | -98.09643 | 24603 ft | 381 kts | 261° |
| 2026-05-06 20:47 | 32.64712 | -98.12782 | 24902 ft | 383 kts | 261° |
| 2026-05-06 20:48 | 32.64458 | -98.15929 | 25191 ft | 384 kts | 261° |
| 2026-05-06 20:48 | 32.64202 | -98.19084 | 25475 ft | 385 kts | 261° |
| 2026-05-06 20:48 | 32.63949 | -98.22209 | 25761 ft | 386 kts | 261° |
| 2026-05-06 20:48 | 32.63693 | -98.25383 | 26050 ft | 388 kts | 261° |
| 2026-05-06 20:49 | 32.63436 | -98.28575 | 26320 ft | 390 kts | 261° |
| 2026-05-06 20:49 | 32.63177 | -98.31781 | 26618 ft | 391 kts | 261° |
| 2026-05-06 20:49 | 32.62917 | -98.34990 | 26913 ft | 392 kts | 261° |
| 2026-05-06 20:49 | 32.62657 | -98.38205 | 27273 ft | 391 kts | 261° |
| 2026-05-06 20:50 | 32.62396 | -98.41407 | 27675 ft | 389 kts | 260° |
| 2026-05-06 20:50 | 32.62138 | -98.44594 | 28083 ft | 387 kts | 260° |
| 2026-05-06 20:50 | 32.61877 | -98.47764 | 28487 ft | 385 kts | 260° |
| 2026-05-06 20:50 | 32.61615 | -98.50922 | 28901 ft | 384 kts | 260° |
| 2026-05-06 20:51 | 32.61354 | -98.54065 | 29302 ft | 382 kts | 260° |
| 2026-05-06 20:51 | 32.61095 | -98.57191 | 29697 ft | 380 kts | 259° |
| 2026-05-06 20:51 | 32.60835 | -98.60308 | 30076 ft | 379 kts | 259° |
| 2026-05-06 20:51 | 32.60575 | -98.63408 | 30419 ft | 377 kts | 259° |
| 2026-05-06 20:52 | 32.60316 | -98.66494 | 30762 ft | 375 kts | 259° |
| 2026-05-06 20:52 | 32.60059 | -98.69562 | 31104 ft | 373 kts | 259° |
| 2026-05-06 20:52 | 32.59802 | -98.72611 | 31439 ft | 371 kts | 259° |
| 2026-05-06 20:52 | 32.59545 | -98.75643 | 31774 ft | 369 kts | 259° |
| 2026-05-06 20:53 | 32.59290 | -98.78660 | 32113 ft | 367 kts | 259° |
| 2026-05-06 20:53 | 32.59033 | -98.81661 | 32438 ft | 365 kts | 259° |
| 2026-05-06 20:53 | 32.58776 | -98.84646 | 32765 ft | 363 kts | 259° |
| 2026-05-06 20:53 | 32.58520 | -98.87611 | 33092 ft | 361 kts | 258° |
| 2026-05-06 20:54 | 32.58264 | -98.90566 | 33410 ft | 359 kts | 258° |
| 2026-05-06 20:54 | 32.58007 | -98.93503 | 33719 ft | 357 kts | 258° |
| 2026-05-06 20:54 | 32.57752 | -98.96425 | 33971 ft | 356 kts | 258° |
| 2026-05-06 20:55 | 32.57242 | -99.02273 | 34028 ft | 357 kts | 258° |
| 2026-05-06 20:55 | 32.56734 | -99.08122 | 34026 ft | 357 kts | 258° |
| 2026-05-06 20:56 | 32.56227 | -99.13969 | 34016 ft | 357 kts | 258° |
| 2026-05-06 20:56 | 32.55712 | -99.19819 | 34014 ft | 357 kts | 258° |
| 2026-05-06 20:57 | 32.55188 | -99.25665 | 34011 ft | 357 kts | 258° |
| 2026-05-06 20:57 | 32.54667 | -99.31517 | 34020 ft | 357 kts | 258° |
| 2026-05-06 20:58 | 32.54213 | -99.37344 | 34015 ft | 358 kts | 259° |
| 2026-05-06 20:58 | 32.53889 | -99.43247 | 34024 ft | 359 kts | 260° |
| 2026-05-06 20:59 | 32.53569 | -99.49158 | 34034 ft | 359 kts | 260° |
| 2026-05-06 20:59 | 32.53224 | -99.55066 | 34042 ft | 360 kts | 259° |
| 2026-05-06 21:00 | 32.52858 | -99.60975 | 34042 ft | 360 kts | 259° |
| 2026-05-06 21:00 | 32.52488 | -99.66891 | 34040 ft | 360 kts | 259° |
| 2026-05-06 21:01 | 32.52124 | -99.72806 | 34051 ft | 360 kts | 259° |
| 2026-05-06 21:01 | 32.51755 | -99.78717 | 34033 ft | 360 kts | 259° |
| 2026-05-06 21:02 | 32.51388 | -99.84631 | 34025 ft | 360 kts | 259° |
| 2026-05-06 21:02 | 32.51016 | -99.90541 | 34035 ft | 359 kts | 259° |
| 2026-05-06 21:03 | 32.50640 | -99.96451 | 34036 ft | 360 kts | 259° |
| 2026-05-06 21:03 | 32.50255 | -100.02358 | 34033 ft | 360 kts | 259° |
| 2026-05-06 21:04 | 32.49865 | -100.08271 | 34020 ft | 360 kts | 259° |
| 2026-05-06 21:04 | 32.49482 | -100.14194 | 34017 ft | 361 kts | 259° |
| 2026-05-06 21:05 | 32.49099 | -100.20113 | 34045 ft | 360 kts | 259° |
| 2026-05-06 21:05 | 32.48708 | -100.26030 | 34055 ft | 360 kts | 259° |
| 2026-05-06 21:06 | 32.48316 | -100.31954 | 34077 ft | 361 kts | 259° |
| 2026-05-06 21:06 | 32.47927 | -100.37878 | 34090 ft | 361 kts | 259° |
| 2026-05-06 21:07 | 32.47537 | -100.43802 | 34091 ft | 361 kts | 259° |
| 2026-05-06 21:07 | 32.47139 | -100.49720 | 34090 ft | 361 kts | 259° |
| 2026-05-06 21:08 | 32.46744 | -100.55647 | 34090 ft | 361 kts | 259° |
| 2026-05-06 21:08 | 32.46345 | -100.61570 | 34080 ft | 361 kts | 259° |
| 2026-05-06 21:09 | 32.45939 | -100.67446 | 34065 ft | 361 kts | 259° |
| 2026-05-06 21:09 | 32.45535 | -100.73372 | 34046 ft | 361 kts | 259° |
| 2026-05-06 21:10 | 32.45130 | -100.79287 | 34026 ft | 360 kts | 259° |
| 2026-05-06 21:10 | 32.44721 | -100.85203 | 34020 ft | 360 kts | 259° |
| 2026-05-06 21:11 | 32.44307 | -100.91110 | 34020 ft | 360 kts | 259° |
| 2026-05-06 21:11 | 32.43893 | -100.97017 | 34021 ft | 360 kts | 259° |
| 2026-05-06 21:12 | 32.43473 | -101.02919 | 34017 ft | 360 kts | 259° |
| 2026-05-06 21:12 | 32.43049 | -101.08817 | 34009 ft | 359 kts | 259° |
| 2026-05-06 21:13 | 32.42622 | -101.14719 | 33998 ft | 359 kts | 259° |
| 2026-05-06 21:13 | 32.42196 | -101.20580 | 33991 ft | 359 kts | 259° |
| 2026-05-06 21:14 | 32.41772 | -101.26471 | 33997 ft | 359 kts | 259° |
| 2026-05-06 21:14 | 32.41346 | -101.32362 | 34006 ft | 359 kts | 259° |
| 2026-05-06 21:15 | 32.40914 | -101.38251 | 34010 ft | 359 kts | 259° |
| 2026-05-06 21:15 | 32.40478 | -101.44137 | 34013 ft | 359 kts | 259° |
| 2026-05-06 21:16 | 32.40039 | -101.50025 | 34013 ft | 359 kts | 259° |
| 2026-05-06 21:16 | 32.39597 | -101.55920 | 34012 ft | 360 kts | 259° |
| 2026-05-06 21:17 | 32.39152 | -101.61821 | 34008 ft | 360 kts | 259° |
| 2026-05-06 21:17 | 32.38707 | -101.67731 | 34003 ft | 361 kts | 259° |
| 2026-05-06 21:18 | 32.38254 | -101.73641 | 33995 ft | 361 kts | 259° |
| 2026-05-06 21:18 | 32.37796 | -101.79564 | 33982 ft | 361 kts | 259° |
| 2026-05-06 21:19 | 32.37339 | -101.85485 | 33970 ft | 361 kts | 259° |
| 2026-05-06 21:19 | 32.36882 | -101.91362 | 33957 ft | 361 kts | 258° |
| 2026-05-06 21:20 | 32.36421 | -101.97280 | 33955 ft | 361 kts | 258° |
| 2026-05-06 21:20 | 32.35950 | -102.03204 | 33955 ft | 362 kts | 258° |
| 2026-05-06 21:21 | 32.35479 | -102.09129 | 33957 ft | 362 kts | 258° |
| 2026-05-06 21:21 | 32.35001 | -102.15058 | 33965 ft | 362 kts | 258° |
| 2026-05-06 21:22 | 32.34524 | -102.20992 | 33975 ft | 362 kts | 258° |
| 2026-05-06 21:22 | 32.34044 | -102.26916 | 33978 ft | 362 kts | 258° |
| 2026-05-06 21:23 | 32.33566 | -102.32835 | 33975 ft | 361 kts | 259° |
| 2026-05-06 21:23 | 32.33089 | -102.38745 | 33977 ft | 361 kts | 258° |
| 2026-05-06 21:24 | 32.32602 | -102.44641 | 33974 ft | 360 kts | 258° |
| 2026-05-06 21:24 | 32.32117 | -102.50477 | 33970 ft | 359 kts | 258° |
| 2026-05-06 21:25 | 32.31632 | -102.56346 | 33965 ft | 358 kts | 259° |
| 2026-05-06 21:25 | 32.31150 | -102.62193 | 33962 ft | 357 kts | 258° |
| 2026-05-06 21:26 | 32.30660 | -102.68025 | 33953 ft | 356 kts | 258° |
| 2026-05-06 21:26 | 32.30162 | -102.73850 | 33949 ft | 356 kts | 258° |
| 2026-05-06 21:27 | 32.29668 | -102.79661 | 33940 ft | 355 kts | 258° |
| 2026-05-06 21:27 | 32.29172 | -102.85460 | 33932 ft | 354 kts | 258° |
| 2026-05-06 21:28 | 32.28672 | -102.91239 | 33928 ft | 353 kts | 258° |
| 2026-05-06 21:28 | 32.28173 | -102.97008 | 33916 ft | 352 kts | 258° |
| 2026-05-06 21:29 | 32.27679 | -103.02730 | 33903 ft | 352 kts | 258° |
| 2026-05-06 21:29 | 32.27177 | -103.08493 | 33896 ft | 352 kts | 258° |
| 2026-05-06 21:30 | 32.26675 | -103.14254 | 33882 ft | 353 kts | 258° |
| 2026-05-06 21:30 | 32.26165 | -103.20021 | 33878 ft | 353 kts | 258° |
| 2026-05-06 21:31 | 32.25652 | -103.25797 | 33873 ft | 353 kts | 258° |
| 2026-05-06 21:31 | 32.25137 | -103.31576 | 33870 ft | 354 kts | 258° |
| 2026-05-06 21:32 | 32.24617 | -103.37359 | 33868 ft | 354 kts | 258° |
| 2026-05-06 21:32 | 32.23838 | -103.46007 | 33872 ft | 355 kts | 258° |
| 2026-05-06 21:33 | 32.23313 | -103.51803 | 33862 ft | 355 kts | 258° |
| 2026-05-06 21:33 | 32.22783 | -103.57610 | 33867 ft | 355 kts | 258° |
| 2026-05-06 21:34 | 32.22252 | -103.63413 | 33865 ft | 356 kts | 258° |
| 2026-05-06 21:34 | 32.21802 | -103.68243 | 33859 ft | 356 kts | 258° |
| 2026-05-06 21:35 | 32.21260 | -103.74054 | 33862 ft | 356 kts | 258° |
| 2026-05-06 21:35 | 32.20720 | -103.79870 | 33864 ft | 356 kts | 258° |
| 2026-05-06 21:36 | 32.20178 | -103.85687 | 33858 ft | 356 kts | 258° |
| 2026-05-06 21:36 | 32.19640 | -103.91505 | 33879 ft | 357 kts | 258° |
| 2026-05-06 21:37 | 32.19093 | -103.97326 | 33895 ft | 356 kts | 258° |
| 2026-05-06 21:37 | 32.18535 | -104.03142 | 33914 ft | 356 kts | 258° |
| 2026-05-06 21:38 | 32.17978 | -104.08956 | 33936 ft | 357 kts | 258° |
| 2026-05-06 21:38 | 32.17422 | -104.14778 | 33949 ft | 357 kts | 258° |
| 2026-05-06 21:39 | 32.16860 | -104.20591 | 33952 ft | 357 kts | 258° |
| 2026-05-06 21:39 | 32.16299 | -104.26413 | 33946 ft | 357 kts | 258° |
| 2026-05-06 21:40 | 32.15735 | -104.32245 | 33936 ft | 357 kts | 257° |
| 2026-05-06 21:40 | 32.15164 | -104.38075 | 33924 ft | 358 kts | 257° |
| 2026-05-06 21:41 | 32.14587 | -104.43921 | 33910 ft | 359 kts | 257° |
| 2026-05-06 21:41 | 32.14011 | -104.49769 | 33894 ft | 359 kts | 258° |
| 2026-05-06 21:42 | 32.13427 | -104.55637 | 33882 ft | 360 kts | 257° |
| 2026-05-06 21:42 | 32.12841 | -104.61511 | 33875 ft | 361 kts | 257° |
| 2026-05-06 21:43 | 32.12249 | -104.67396 | 33874 ft | 361 kts | 257° |
| 2026-05-06 21:43 | 32.11657 | -104.73281 | 33878 ft | 361 kts | 258° |
| 2026-05-06 21:44 | 32.11066 | -104.79122 | 33887 ft | 361 kts | 257° |
| 2026-05-06 21:44 | 32.10464 | -104.85004 | 33891 ft | 361 kts | 257° |
| 2026-05-06 21:45 | 32.09864 | -104.90894 | 33893 ft | 362 kts | 257° |
| 2026-05-06 21:45 | 32.09264 | -104.96785 | 33890 ft | 362 kts | 258° |
| 2026-05-06 21:46 | 32.08657 | -105.02680 | 33889 ft | 362 kts | 257° |
| 2026-05-06 21:46 | 32.08049 | -105.08569 | 33891 ft | 361 kts | 257° |
| 2026-05-06 21:47 | 32.07438 | -105.14446 | 33893 ft | 361 kts | 257° |
| 2026-05-06 21:47 | 32.06827 | -105.20322 | 33892 ft | 361 kts | 257° |
| 2026-05-06 21:48 | 32.06212 | -105.26186 | 33892 ft | 360 kts | 257° |
| 2026-05-06 21:48 | 32.05595 | -105.32046 | 33895 ft | 360 kts | 257° |
| 2026-05-06 21:49 | 32.04973 | -105.37901 | 33892 ft | 360 kts | 257° |
| 2026-05-06 21:49 | 32.04352 | -105.43750 | 33890 ft | 360 kts | 257° |
| 2026-05-06 21:50 | 32.03732 | -105.49610 | 33889 ft | 360 kts | 257° |
| 2026-05-06 21:50 | 32.03103 | -105.55468 | 33893 ft | 360 kts | 257° |
| 2026-05-06 21:51 | 32.02473 | -105.61294 | 33895 ft | 360 kts | 257° |
| 2026-05-06 21:51 | 32.01835 | -105.67161 | 33901 ft | 361 kts | 257° |
| 2026-05-06 21:52 | 32.01203 | -105.73019 | 33905 ft | 360 kts | 257° |
| 2026-05-06 21:52 | 32.00567 | -105.78877 | 33905 ft | 360 kts | 257° |
| 2026-05-06 21:53 | 31.99922 | -105.84739 | 33902 ft | 361 kts | 257° |
| 2026-05-06 21:53 | 31.99278 | -105.90600 | 33904 ft | 361 kts | 257° |
| 2026-05-06 21:54 | 31.98625 | -105.96468 | 33899 ft | 361 kts | 257° |
| 2026-05-06 21:54 | 31.97972 | -106.02340 | 33917 ft | 361 kts | 257° |
| 2026-05-06 21:55 | 31.97319 | -106.08216 | 33945 ft | 362 kts | 257° |
| 2026-05-06 21:55 | 31.96659 | -106.14090 | 33975 ft | 362 kts | 257° |
| 2026-05-06 21:56 | 31.95996 | -106.19965 | 34004 ft | 362 kts | 257° |
| 2026-05-06 21:56 | 31.95340 | -106.25843 | 34028 ft | 364 kts | 259° |
| 2026-05-06 21:57 | 31.95706 | -106.31847 | 34043 ft | 375 kts | 269° |
| 2026-05-06 21:57 | 31.96437 | -106.37935 | 34046 ft | 375 kts | 269° |
| 2026-05-06 21:58 | 31.97157 | -106.44031 | 34034 ft | 376 kts | 269° |
| 2026-05-06 21:58 | 31.97867 | -106.50131 | 34002 ft | 376 kts | 269° |
| 2026-05-06 21:59 | 31.98574 | -106.56246 | 34012 ft | 377 kts | 269° |
| 2026-05-06 21:59 | 31.99279 | -106.62372 | 34041 ft | 377 kts | 269° |
| 2026-05-06 22:00 | 31.99981 | -106.68495 | 34048 ft | 377 kts | 269° |
| 2026-05-06 22:00 | 32.00687 | -106.74616 | 34046 ft | 377 kts | 269° |
| 2026-05-06 22:01 | 32.01394 | -106.80744 | 34026 ft | 377 kts | 269° |
| 2026-05-06 22:01 | 32.02095 | -106.86875 | 33996 ft | 377 kts | 269° |
| 2026-05-06 22:02 | 32.02783 | -106.92983 | 33952 ft | 376 kts | 269° |
| 2026-05-06 22:02 | 32.03462 | -106.99093 | 33947 ft | 375 kts | 269° |
| 2026-05-06 22:03 | 32.04146 | -107.05193 | 33940 ft | 376 kts | 269° |
| 2026-05-06 22:03 | 32.04822 | -107.11260 | 33926 ft | 375 kts | 269° |
| 2026-05-06 22:04 | 32.05502 | -107.17360 | 33912 ft | 376 kts | 269° |
| 2026-05-06 22:04 | 32.06184 | -107.23468 | 33899 ft | 376 kts | 269° |
| 2026-05-06 22:05 | 32.06855 | -107.29582 | 33891 ft | 376 kts | 269° |
| 2026-05-06 22:05 | 32.07523 | -107.35697 | 33894 ft | 376 kts | 269° |
| 2026-05-06 22:06 | 32.08195 | -107.41814 | 33930 ft | 376 kts | 269° |
| 2026-05-06 22:06 | 32.08865 | -107.47942 | 33966 ft | 377 kts | 269° |
| 2026-05-06 22:07 | 32.09525 | -107.54078 | 34000 ft | 377 kts | 269° |
| 2026-05-06 22:07 | 32.10184 | -107.60220 | 34018 ft | 378 kts | 269° |
| 2026-05-06 22:08 | 32.10846 | -107.66375 | 34038 ft | 379 kts | 269° |
| 2026-05-06 22:08 | 32.11503 | -107.72535 | 34047 ft | 378 kts | 269° |
| 2026-05-06 22:09 | 32.12160 | -107.78692 | 34050 ft | 378 kts | 269° |
| 2026-05-06 22:09 | 32.12808 | -107.84846 | 34041 ft | 378 kts | 269° |
| 2026-05-06 22:10 | 32.13455 | -107.90995 | 34024 ft | 378 kts | 269° |
| 2026-05-06 22:10 | 32.14109 | -107.97145 | 33995 ft | 378 kts | 269° |
| 2026-05-06 22:11 | 32.14738 | -108.03249 | 33974 ft | 377 kts | 269° |
| 2026-05-06 22:11 | 32.15366 | -108.09391 | 33952 ft | 377 kts | 269° |
| 2026-05-06 22:12 | 32.15901 | -108.14537 | 33929 ft | 377 kts | 269° |
| 2026-05-06 22:12 | 32.16636 | -108.21671 | 33938 ft | 376 kts | 269° |
| 2026-05-06 22:13 | 32.17264 | -108.27805 | 33948 ft | 376 kts | 269° |
| 2026-05-06 22:13 | 32.17896 | -108.33932 | 33970 ft | 376 kts | 269° |
| 2026-05-06 22:14 | 32.18520 | -108.40060 | 34001 ft | 376 kts | 268° |
| 2026-05-06 22:14 | 32.19132 | -108.46188 | 34025 ft | 376 kts | 268° |
| 2026-05-06 22:15 | 32.19738 | -108.52315 | 34051 ft | 375 kts | 268° |
| 2026-05-06 22:15 | 32.20343 | -108.58433 | 34079 ft | 375 kts | 268° |
| 2026-05-06 22:16 | 32.20957 | -108.64547 | 34092 ft | 375 kts | 268° |
| 2026-05-06 22:16 | 32.21570 | -108.70654 | 34100 ft | 374 kts | 268° |
| 2026-05-06 22:17 | 32.22169 | -108.76760 | 34092 ft | 374 kts | 268° |
| 2026-05-06 22:17 | 32.22760 | -108.82869 | 34073 ft | 374 kts | 268° |
| 2026-05-06 22:18 | 32.23256 | -108.87936 | 34053 ft | 374 kts | 268° |
| 2026-05-06 22:18 | 32.23945 | -108.95030 | 34012 ft | 374 kts | 268° |
| 2026-05-06 22:19 | 32.24530 | -109.01131 | 33972 ft | 373 kts | 268° |
| 2026-05-06 22:19 | 32.25022 | -109.06242 | 33954 ft | 374 kts | 268° |
| 2026-05-06 22:20 | 32.25605 | -109.12358 | 33940 ft | 374 kts | 267° |
| 2026-05-06 22:20 | 32.26172 | -109.18468 | 33943 ft | 374 kts | 267° |
| 2026-05-06 22:21 | 32.26748 | -109.24584 | 33944 ft | 375 kts | 268° |
| 2026-05-06 22:21 | 32.27987 | -109.30682 | 33943 ft | 386 kts | 276° |
| 2026-05-06 22:22 | 32.29486 | -109.36768 | 33950 ft | 385 kts | 275° |
| 2026-05-06 22:22 | 32.30968 | -109.42854 | 33950 ft | 385 kts | 275° |
| 2026-05-06 22:23 | 32.32451 | -109.48938 | 33954 ft | 385 kts | 275° |
| 2026-05-06 22:23 | 32.33933 | -109.55029 | 33944 ft | 385 kts | 275° |
| 2026-05-06 22:24 | 32.35394 | -109.61079 | 33943 ft | 385 kts | 275° |
| 2026-05-06 22:24 | 32.36859 | -109.67172 | 33952 ft | 385 kts | 275° |
| 2026-05-06 22:25 | 32.38331 | -109.73271 | 33954 ft | 386 kts | 275° |
| 2026-05-06 22:25 | 32.39805 | -109.79378 | 33964 ft | 386 kts | 275° |
| 2026-05-06 22:26 | 32.41274 | -109.85491 | 33966 ft | 386 kts | 275° |
| 2026-05-06 22:26 | 32.42738 | -109.91603 | 33969 ft | 386 kts | 275° |
| 2026-05-06 22:27 | 32.44202 | -109.97720 | 33974 ft | 386 kts | 275° |
| 2026-05-06 22:27 | 32.45666 | -110.03841 | 33975 ft | 386 kts | 275° |
| 2026-05-06 22:28 | 32.47117 | -110.09957 | 33975 ft | 386 kts | 275° |
| 2026-05-06 22:28 | 32.48567 | -110.16083 | 33970 ft | 386 kts | 275° |
| 2026-05-06 22:29 | 32.50015 | -110.22210 | 33972 ft | 387 kts | 275° |
| 2026-05-06 22:29 | 32.51463 | -110.28347 | 33956 ft | 387 kts | 275° |
| 2026-05-06 22:30 | 32.52916 | -110.34509 | 33961 ft | 389 kts | 275° |
| 2026-05-06 22:30 | 32.54368 | -110.40689 | 33969 ft | 389 kts | 275° |
| 2026-05-06 22:31 | 32.55817 | -110.46864 | 33975 ft | 389 kts | 275° |
| 2026-05-06 22:31 | 32.57262 | -110.53046 | 33973 ft | 388 kts | 275° |
| 2026-05-06 22:32 | 32.58701 | -110.59218 | 33974 ft | 388 kts | 275° |
| 2026-05-06 22:32 | 32.60132 | -110.65358 | 33978 ft | 389 kts | 275° |
| 2026-05-06 22:33 | 32.61566 | -110.71548 | 33985 ft | 389 kts | 275° |
| 2026-05-06 22:33 | 32.63002 | -110.77739 | 33982 ft | 389 kts | 275° |
| 2026-05-06 22:34 | 32.64440 | -110.83937 | 33979 ft | 390 kts | 276° |
| 2026-05-06 22:34 | 32.65865 | -110.90142 | 33982 ft | 390 kts | 276° |
| 2026-05-06 22:35 | 32.67290 | -110.96357 | 33990 ft | 390 kts | 276° |
| 2026-05-06 22:35 | 32.68711 | -111.02577 | 34008 ft | 391 kts | 276° |
| 2026-05-06 22:36 | 32.70137 | -111.08808 | 34017 ft | 391 kts | 276° |
| 2026-05-06 22:36 | 32.71559 | -111.15046 | 34020 ft | 392 kts | 276° |
| 2026-05-06 22:37 | 32.72983 | -111.21298 | 34017 ft | 392 kts | 276° |
| 2026-05-06 22:37 | 32.73213 | -111.22311 | 34016 ft | 392 kts | 276° |
| 2026-05-06 22:38 | 32.75880 | -111.34067 | 34011 ft | 392 kts | 276° |
| 2026-05-06 22:38 | 32.77294 | -111.40325 | 34008 ft | 393 kts | 276° |
| 2026-05-06 22:39 | 32.78702 | -111.46592 | 33998 ft | 393 kts | 276° |
| 2026-05-06 22:39 | 32.80115 | -111.52868 | 33987 ft | 393 kts | 276° |
| 2026-05-06 22:40 | 32.81529 | -111.59150 | 33982 ft | 393 kts | 276° |
| 2026-05-06 22:40 | 32.82938 | -111.65435 | 33981 ft | 394 kts | 276° |
| 2026-05-06 22:41 | 32.85037 | -111.74879 | 33978 ft | 394 kts | 276° |
| 2026-05-06 22:42 | 32.86426 | -111.81142 | 33852 ft | 395 kts | 279° |
| 2026-05-06 22:42 | 32.87129 | -111.84312 | 33967 ft | 399 kts | 281° |
| 2026-05-06 22:42 | 32.87841 | -111.87530 | 33964 ft | 406 kts | 281° |
| 2026-05-06 22:43 | 32.89998 | -111.93898 | 33970 ft | 427 kts | 296° |
| 2026-05-06 22:43 | 32.92988 | -112.00134 | 33967 ft | 440 kts | 296° |
| 2026-05-06 22:44 | 32.96019 | -112.06504 | 33965 ft | 444 kts | 296° |
| 2026-05-06 22:44 | 32.99058 | -112.12918 | 33969 ft | 445 kts | 296° |
| 2026-05-06 22:45 | 33.02105 | -112.19350 | 33971 ft | 446 kts | 297° |
| 2026-05-06 22:45 | 33.05154 | -112.25811 | 33972 ft | 448 kts | 297° |
| 2026-05-06 22:46 | 33.08203 | -112.32289 | 33973 ft | 448 kts | 297° |
| 2026-05-06 22:46 | 33.11261 | -112.38783 | 33971 ft | 450 kts | 298° |
| 2026-05-06 22:47 | 33.14332 | -112.45300 | 33971 ft | 451 kts | 298° |
| 2026-05-06 22:47 | 33.17400 | -112.51843 | 33972 ft | 452 kts | 298° |
| 2026-05-06 22:48 | 33.20473 | -112.58403 | 33970 ft | 453 kts | 299° |
| 2026-05-06 22:48 | 33.23556 | -112.64991 | 33964 ft | 455 kts | 299° |
| 2026-05-06 22:49 | 33.26618 | -112.71555 | 33967 ft | 456 kts | 300° |
| 2026-05-06 22:49 | 33.29709 | -112.78195 | 33975 ft | 458 kts | 300° |
| 2026-05-06 22:50 | 33.32798 | -112.84855 | 33976 ft | 458 kts | 300° |
| 2026-05-06 22:50 | 33.35892 | -112.91527 | 33977 ft | 459 kts | 300° |
| 2026-05-06 22:51 | 33.38992 | -112.98210 | 33980 ft | 459 kts | 301° |
| 2026-05-06 22:51 | 33.42084 | -113.04900 | 33979 ft | 459 kts | 301° |
| 2026-05-06 22:52 | 33.45156 | -113.11553 | 33976 ft | 459 kts | 302° |
| 2026-05-06 22:52 | 33.48239 | -113.18259 | 33982 ft | 459 kts | 302° |
| 2026-05-06 22:53 | 33.51318 | -113.24959 | 33977 ft | 459 kts | 302° |
| 2026-05-06 22:53 | 33.54399 | -113.31665 | 33970 ft | 459 kts | 302° |
| 2026-05-06 22:54 | 33.57474 | -113.38382 | 33963 ft | 459 kts | 303° |
| 2026-05-06 22:54 | 33.60026 | -113.43971 | 33955 ft | 460 kts | 303° |
| 2026-05-06 22:55 | 33.63098 | -113.50707 | 33948 ft | 460 kts | 303° |
| 2026-05-06 22:55 | 33.66172 | -113.57456 | 33942 ft | 461 kts | 303° |
| 2026-05-06 22:56 | 33.69241 | -113.64215 | 33943 ft | 461 kts | 303° |
| 2026-05-06 22:56 | 33.72315 | -113.70987 | 33946 ft | 462 kts | 303° |
| 2026-05-06 22:57 | 33.75397 | -113.77786 | 33947 ft | 464 kts | 304° |
| 2026-05-06 22:57 | 33.78479 | -113.84605 | 33948 ft | 465 kts | 304° |
| 2026-05-06 22:58 | 33.81567 | -113.91457 | 33952 ft | 466 kts | 304° |
| 2026-05-06 22:58 | 33.84658 | -113.98322 | 33953 ft | 468 kts | 304° |
| 2026-05-06 22:59 | 33.87756 | -114.05216 | 33951 ft | 469 kts | 304° |
| 2026-05-06 22:59 | 33.90556 | -114.12345 | 33948 ft | 478 kts | 292° |
| 2026-05-06 23:00 | 33.92015 | -114.20165 | 33950 ft | 483 kts | 287° |
| 2026-05-06 23:00 | 33.93354 | -114.28096 | 33947 ft | 484 kts | 287° |
| 2026-05-06 23:01 | 33.94698 | -114.36047 | 33951 ft | 484 kts | 287° |
| 2026-05-06 23:01 | 33.96041 | -114.44012 | 33951 ft | 485 kts | 287° |
| 2026-05-06 23:02 | 33.97378 | -114.51983 | 33942 ft | 486 kts | 287° |
| 2026-05-06 23:02 | 33.98709 | -114.59970 | 33945 ft | 486 kts | 287° |
| 2026-05-06 23:03 | 34.00039 | -114.67960 | 33958 ft | 486 kts | 287° |
| 2026-05-06 23:03 | 34.01368 | -114.75954 | 33962 ft | 486 kts | 287° |
| 2026-05-06 23:04 | 34.02685 | -114.83945 | 33969 ft | 486 kts | 287° |
| 2026-05-06 23:04 | 34.03997 | -114.91946 | 33980 ft | 486 kts | 287° |
| 2026-05-06 23:05 | 34.05303 | -114.99940 | 33979 ft | 486 kts | 287° |
| 2026-05-06 23:05 | 34.06606 | -115.07933 | 33986 ft | 486 kts | 287° |
| 2026-05-06 23:06 | 34.07896 | -115.15926 | 33987 ft | 485 kts | 287° |
| 2026-05-06 23:06 | 34.09185 | -115.23908 | 33987 ft | 485 kts | 287° |
| 2026-05-06 23:07 | 34.10477 | -115.31894 | 33985 ft | 485 kts | 287° |
| 2026-05-06 23:07 | 34.11763 | -115.39880 | 33994 ft | 484 kts | 287° |
| 2026-05-06 23:08 | 34.13046 | -115.47865 | 33992 ft | 484 kts | 286° |
| 2026-05-06 23:08 | 34.14311 | -115.55846 | 33993 ft | 484 kts | 286° |
| 2026-05-06 23:09 | 34.15560 | -115.63775 | 33993 ft | 484 kts | 286° |
| 2026-05-06 23:09 | 34.16083 | -115.71920 | 33991 ft | 494 kts | 269° |
| 2026-05-06 23:10 | 34.15428 | -115.78847 | 34008 ft | 496 kts | 267° |
| 2026-05-06 23:10 | 34.14496 | -115.88450 | 34032 ft | 496 kts | 267° |
| 2026-05-06 23:11 | 34.13691 | -115.96714 | 34048 ft | 496 kts | 267° |
| 2026-05-06 23:11 | 34.12878 | -116.04962 | 33929 ft | 492 kts | 267° |
| 2026-05-06 23:11 | 34.12480 | -116.09000 | 33988 ft | 476 kts | 267° |
| 2026-05-06 23:12 | 34.12092 | -116.12906 | 33979 ft | 462 kts | 268° |
| 2026-05-06 23:12 | 34.11715 | -116.16694 | 33981 ft | 448 kts | 268° |
| 2026-05-06 23:12 | 34.11348 | -116.20412 | 33981 ft | 449 kts | 268° |
| 2026-05-06 23:13 | 34.10608 | -116.27955 | 33971 ft | 455 kts | 268° |
| 2026-05-06 23:13 | 34.09839 | -116.35549 | 33512 ft | 461 kts | 267° |
| 2026-05-06 23:13 | 34.09430 | -116.39451 | 32222 ft | 477 kts | 266° |
| 2026-05-06 23:14 | 34.08999 | -116.43488 | 30910 ft | 493 kts | 266° |
| 2026-05-06 23:14 | 34.08549 | -116.47647 | 29565 ft | 507 kts | 265° |
| 2026-05-06 23:14 | 34.08084 | -116.51904 | 28310 ft | 514 kts | 265° |
| 2026-05-06 23:14 | 34.07615 | -116.56160 | 27544 ft | 509 kts | 265° |
| 2026-05-06 23:15 | 34.07154 | -116.60314 | 26761 ft | 489 kts | 265° |
| 2026-05-06 23:15 | 34.06740 | -116.64297 | 26023 ft | 468 kts | 266° |
| 2026-05-06 23:15 | 34.06377 | -116.68122 | 25304 ft | 449 kts | 267° |
| 2026-05-06 23:15 | 34.06050 | -116.71792 | 24604 ft | 433 kts | 268° |
| 2026-05-06 23:16 | 34.05740 | -116.75339 | 23921 ft | 419 kts | 267° |
| 2026-05-06 23:16 | 34.05438 | -116.78778 | 23176 ft | 406 kts | 267° |
| 2026-05-06 23:16 | 34.05139 | -116.82100 | 22697 ft | 387 kts | 267° |
| 2026-05-06 23:16 | 34.04844 | -116.85258 | 22441 ft | 377 kts | 267° |
| 2026-05-06 23:17 | 34.04548 | -116.88380 | 22201 ft | 372 kts | 267° |
| 2026-05-06 23:17 | 34.04222 | -116.91463 | 21941 ft | 369 kts | 266° |
| 2026-05-06 23:17 | 34.03844 | -116.94522 | 21686 ft | 369 kts | 265° |
| 2026-05-06 23:17 | 34.03436 | -116.97562 | 21274 ft | 367 kts | 264° |
| 2026-05-06 23:18 | 34.03020 | -117.00585 | 20859 ft | 364 kts | 264° |
| 2026-05-06 23:18 | 34.02607 | -117.03588 | 20457 ft | 362 kts | 264° |
| 2026-05-06 23:18 | 34.02221 | -117.06573 | 20078 ft | 359 kts | 265° |
| 2026-05-06 23:18 | 34.01863 | -117.09543 | 19694 ft | 357 kts | 265° |
| 2026-05-06 23:19 | 34.01520 | -117.12495 | 19319 ft | 354 kts | 265° |
| 2026-05-06 23:19 | 34.01180 | -117.15431 | 18939 ft | 353 kts | 265° |
| 2026-05-06 23:19 | 34.00839 | -117.18350 | 18645 ft | 350 kts | 265° |
| 2026-05-06 23:19 | 34.00501 | -117.21219 | 18292 ft | 350 kts | 265° |
| 2026-05-06 23:20 | 34.00158 | -117.24120 | 17890 ft | 349 kts | 265° |
| 2026-05-06 23:20 | 33.99811 | -117.27015 | 17399 ft | 350 kts | 265° |
| 2026-05-06 23:20 | 33.99461 | -117.29925 | 16913 ft | 351 kts | 265° |
| 2026-05-06 23:20 | 33.99113 | -117.32836 | 16411 ft | 351 kts | 265° |
| 2026-05-06 23:21 | 33.98770 | -117.35746 | 15940 ft | 351 kts | 265° |
| 2026-05-06 23:21 | 33.98429 | -117.38659 | 15474 ft | 351 kts | 265° |
| 2026-05-06 23:21 | 33.98087 | -117.41573 | 15014 ft | 351 kts | 265° |
| 2026-05-06 23:21 | 33.97744 | -117.44485 | 14563 ft | 351 kts | 265° |
| 2026-05-06 23:22 | 33.97403 | -117.47397 | 14116 ft | 351 kts | 265° |
| 2026-05-06 23:22 | 33.97210 | -117.50315 | 13650 ft | 348 kts | 272° |
| 2026-05-06 23:22 | 33.97171 | -117.53227 | 13174 ft | 347 kts | 272° |
| 2026-05-06 23:22 | 33.97124 | -117.56118 | 12815 ft | 343 kts | 272° |
| 2026-05-06 23:23 | 33.97074 | -117.58971 | 12458 ft | 339 kts | 272° |
| 2026-05-06 23:23 | 33.97022 | -117.61791 | 12105 ft | 335 kts | 272° |
| 2026-05-06 23:23 | 33.96970 | -117.64579 | 11755 ft | 331 kts | 272° |
| 2026-05-06 23:23 | 33.96919 | -117.67334 | 11408 ft | 327 kts | 272° |
| 2026-05-06 23:24 | 33.96869 | -117.70066 | 11069 ft | 324 kts | 271° |
| 2026-05-06 23:24 | 33.96821 | -117.72768 | 10734 ft | 322 kts | 272° |
| 2026-05-06 23:24 | 33.96773 | -117.75452 | 10399 ft | 319 kts | 271° |
| 2026-05-06 23:24 | 33.96725 | -117.78120 | 10067 ft | 317 kts | 272° |
| 2026-05-06 23:25 | 33.96678 | -117.80757 | 9713 ft | 312 kts | 271° |
| 2026-05-06 23:25 | 33.96629 | -117.83303 | 9313 ft | 302 kts | 272° |
| 2026-05-06 23:25 | 33.96581 | -117.85761 | 8979 ft | 286 kts | 271° |
| 2026-05-06 23:25 | 33.96534 | -117.88087 | 8641 ft | 270 kts | 272° |
| 2026-05-06 23:26 | 33.96491 | -117.90294 | 8315 ft | 257 kts | 271° |
| 2026-05-06 23:26 | 33.96449 | -117.92428 | 8000 ft | 255 kts | 272° |
| 2026-05-06 23:26 | 33.96407 | -117.94564 | 7652 ft | 255 kts | 272° |
| 2026-05-06 23:26 | 33.96366 | -117.96692 | 7318 ft | 254 kts | 272° |
| 2026-05-06 23:27 | 33.96325 | -117.98829 | 6983 ft | 256 kts | 271° |
| 2026-05-06 23:27 | 33.96283 | -118.00970 | 6653 ft | 256 kts | 272° |
| 2026-05-06 23:27 | 33.96242 | -118.03111 | 6347 ft | 254 kts | 271° |
| 2026-05-06 23:27 | 33.96202 | -118.05167 | 6002 ft | 250 kts | 271° |
| 2026-05-06 23:28 | 33.96159 | -118.07255 | 5623 ft | 248 kts | 270° |
| 2026-05-06 23:28 | 33.96115 | -118.09325 | 5271 ft | 245 kts | 270° |
| 2026-05-06 23:28 | 33.96072 | -118.11366 | 4944 ft | 242 kts | 270° |
| 2026-05-06 23:28 | 33.96029 | -118.13383 | 4597 ft | 239 kts | 270° |
| 2026-05-06 23:29 | 33.95987 | -118.15369 | 4273 ft | 235 kts | 270° |
| 2026-05-06 23:29 | 33.95972 | -118.16033 | 4162 ft | 234 kts | 270° |